Aviation Digital Data Service (ADDS)

Output produced by METARs form (1735 UTC 27 May 2017)
found at http://www.aviationweather.gov/adds/metars/
 
DIBK 271600Z 14006KT 9999 SCT013 SCT100 FEW023CB 30/22 Q1014 NOSIG
TAF DIBK 271700Z 2718/2818 24005KT 9999 SCT013 
     TEMPO 2718/2724 4000 TSRA BKN013 FEW025CB 
     TEMPO 2814/2818 TS BKN013 FEW025CB
       
DIAP 271730Z 22003KT 180V270 9999 SCT012 29/25 Q1011 NOSIG
TAF DIAP 271700Z 2718/2824 20006KT 9999 SCT012 
     TEMPO 2718/2724 4000 RA BKN012 
     TEMPO 2812/2818 TS BKN012 FEW020CB
       
TAF DIYO 271700Z 2718/2818 24006KT 9999 SCT013 
     TEMPO 2718/2724 4000 TSRA BKN013 FEW025CB 
     TEMPO 2814/2818 TS BKN013 FEW025CB